Time;durP1;ratioP1;P1;durP2;ratioP2;P2;SDS_P1;SDS_P2;PMS_P1;PMS_P2;Temp;Humidity;BMP_temperature;BMP_pressure;BME280_temperature;BME280_humidity;BME280_pressure;Samples;Min_cycle;Max_cycle;Signal;HPM_P1;HPM_P2
2021/04/18 00:00:53;;;;;;;85.72;42.97;;;4.80;92.00;;;;;;5094929;28;20024;-71
2021/04/18 00:03:19;;;;;;;74.65;41.42;;;4.80;91.90;;;;;;5095031;28;20016;-70
2021/04/18 00:05:45;;;;;;;77.28;41.40;;;4.80;92.00;;;;;;5096576;28;20066;-71
2021/04/18 00:08:10;;;;;;;70.22;37.95;;;4.80;92.50;;;;;;5089420;28;20040;-71
2021/04/18 00:10:39;;;;;;;68.47;38.33;;;4.90;92.50;;;;;;5086957;28;20453;-70
2021/04/18 00:13:07;;;;;;;73.88;38.63;;;5.00;92.80;;;;;;5093812;28;20111;-71
2021/04/18 00:15:34;;;;;;;70.95;39.75;;;5.10;92.80;;;;;;5094612;28;20150;-71
2021/04/18 00:18:00;;;;;;;77.95;40.80;;;5.10;92.80;;;;;;5095197;28;20020;-70
2021/04/18 00:20:26;;;;;;;72.78;40.47;;;5.20;92.90;;;;;;5094543;28;20485;-71
2021/04/18 00:22:51;;;;;;;73.95;39.45;;;5.30;92.80;;;;;;5095929;28;20016;-71
2021/04/18 00:25:19;;;;;;;69.45;37.83;;;5.40;92.80;;;;;;5093870;28;20020;-71
2021/04/18 00:27:45;;;;;;;77.80;39.85;;;5.40;92.70;;;;;;5095563;28;20032;-71
2021/04/18 00:30:15;;;;;;;69.55;39.45;;;5.50;92.50;;;;;;5095432;28;20028;-71
2021/04/18 00:32:42;;;;;;;70.07;39.60;;;5.50;92.30;;;;;;5094709;28;20059;-70
2021/04/18 00:35:09;;;;;;;53.40;31.30;;;5.50;92.20;;;;;;5094977;28;20024;-70
2021/04/18 00:37:34;;;;;;;61.72;35.35;;;5.50;92.10;;;;;;5094261;28;20145;-71
2021/04/18 00:40:01;;;;;;;60.65;34.42;;;5.50;92.50;;;;;;5095076;28;20098;-73
2021/04/18 00:42:26;;;;;;;68.25;37.13;;;5.50;92.20;;;;;;5095248;28;20019;-71
2021/04/18 00:44:52;;;;;;;66.95;36.33;;;5.50;92.30;;;;;;5094246;28;20020;-71
2021/04/18 00:47:18;;;;;;;56.00;33.60;;;5.50;92.30;;;;;;5093357;28;20020;-71
2021/04/18 00:49:45;;;;;;;50.95;31.88;;;5.50;92.40;;;;;;5094434;28;20031;-71
2021/04/18 00:52:10;;;;;;;49.83;31.40;;;5.60;92.50;;;;;;5094912;28;20073;-71
2021/04/18 00:54:37;;;;;;;51.25;30.67;;;5.60;92.50;;;;;;5093861;28;20032;-71
2021/04/18 00:57:03;;;;;;;51.80;28.23;;;5.70;92.60;;;;;;5092916;28;20106;-71
2021/04/18 00:59:29;;;;;;;46.30;27.02;;;5.80;92.60;;;;;;5094945;28;20453;-71
2021/04/18 01:01:55;;;;;;;47.30;26.77;;;5.90;92.50;;;;;;5093918;28;20135;-70
2021/04/18 01:04:20;;;;;;;44.47;27.23;;;5.90;92.40;;;;;;5094698;28;20474;-71
2021/04/18 01:06:46;;;;;;;48.97;28.60;;;6.00;92.20;;;;;;5095081;28;20024;-71
2021/04/18 01:09:12;;;;;;;47.15;30.27;;;6.00;92.10;;;;;;5093801;28;20048;-71
2021/04/18 01:11:38;;;;;;;44.13;27.48;;;6.00;92.10;;;;;;5094878;28;20024;-71
2021/04/18 01:14:03;;;;;;;39.70;24.70;;;6.00;92.20;;;;;;5094460;28;20073;-71
2021/04/18 01:16:29;;;;;;;38.78;24.83;;;5.90;92.20;;;;;;5094841;28;20047;-71
2021/04/18 01:18:55;;;;;;;38.60;24.75;;;6.00;92.30;;;;;;5094605;28;20028;-72
2021/04/18 01:21:21;;;;;;;41.83;25.45;;;6.00;92.40;;;;;;5094509;28;20099;-70
2021/04/18 01:23:47;;;;;;;42.45;25.88;;;6.10;92.30;;;;;;5092919;28;20046;-70
2021/04/18 01:26:14;;;;;;;43.63;26.38;;;6.20;92.30;;;;;;5080145;28;20459;-71
2021/04/18 01:28:40;;;;;;;40.65;25.95;;;6.30;92.30;;;;;;5093223;28;20020;-71
2021/04/18 01:31:06;;;;;;;39.67;24.73;;;6.30;92.20;;;;;;5093389;28;20051;-70
2021/04/18 01:33:33;;;;;;;39.60;24.90;;;6.40;92.00;;;;;;5080023;28;20028;-71
2021/04/18 01:36:01;;;;;;;38.38;25.20;;;6.40;91.90;;;;;;5093066;28;20074;-71
2021/04/18 01:38:27;;;;;;;40.80;25.50;;;6.40;91.60;;;;;;5094129;28;20016;-71
2021/04/18 01:40:53;;;;;;;41.05;24.63;;;6.40;91.60;;;;;;5093100;28;20032;-70
2021/04/18 01:43:19;;;;;;;40.55;26.38;;;6.40;91.60;;;;;;5081023;28;20050;-70
2021/04/18 01:45:49;;;;;;;42.85;26.77;;;6.40;91.70;;;;;;5073999;28;20111;-70
2021/04/18 01:48:17;;;;;;;53.38;28.25;;;6.50;91.50;;;;;;5086216;28;20032;-70
2021/04/18 01:50:48;;;;;;;41.13;25.98;;;6.40;91.50;;;;;;5094072;28;20044;-70
2021/04/18 01:53:14;;;;;;;41.25;23.63;;;6.40;91.50;;;;;;5093748;28;20121;-70
2021/04/18 01:55:40;;;;;;;40.58;23.50;;;6.40;91.40;;;;;;5092790;28;20052;-70
2021/04/18 01:58:06;;;;;;;37.65;23.55;;;6.40;91.40;;;;;;5094509;28;20442;-70
2021/04/18 02:00:33;;;;;;;39.50;24.42;;;6.40;91.30;;;;;;5092766;28;20095;-70
2021/04/18 02:03:00;;;;;;;35.65;23.60;;;6.30;91.30;;;;;;5080528;28;20024;-71
2021/04/18 02:05:28;;;;;;;36.78;24.17;;;6.30;91.40;;;;;;5094257;28;20023;-70
2021/04/18 02:07:54;;;;;;;38.78;25.33;;;6.30;91.30;;;;;;5093309;28;20043;-70
2021/04/18 02:10:20;;;;;;;38.05;24.38;;;6.30;91.70;;;;;;5098241;28;20026;-70
2021/04/18 02:12:46;;;;;;;42.88;26.20;;;6.20;91.60;;;;;;5103112;28;20077;-70
2021/04/18 02:15:13;;;;;;;41.17;26.45;;;6.30;91.70;;;;;;5097988;28;20032;-69
2021/04/18 02:17:39;;;;;;;44.28;26.70;;;6.30;91.60;;;;;;5096696;28;20075;-70
2021/04/18 02:20:08;;;;;;;41.40;26.48;;;6.30;91.50;;;;;;5095306;28;20458;-70
2021/04/18 02:22:35;;;;;;;43.03;26.83;;;6.20;91.50;;;;;;5093408;28;20103;-70
2021/04/18 02:25:01;;;;;;;42.50;26.90;;;6.30;91.60;;;;;;5090408;28;20016;-70
2021/04/18 02:27:27;;;;;;;41.78;26.73;;;6.30;91.50;;;;;;5082363;28;20020;-70
2021/04/18 02:29:56;;;;;;;40.47;27.52;;;6.20;91.70;;;;;;5091780;28;20115;-70
2021/04/18 02:32:23;;;;;;;41.08;25.85;;;6.20;91.40;;;;;;5093383;28;20008;-70
2021/04/18 02:34:49;;;;;;;43.88;25.55;;;6.20;91.20;;;;;;5093172;28;20347;-71
2021/04/18 02:37:15;;;;;;;39.25;25.67;;;6.10;91.20;;;;;;5092971;28;20027;-70
2021/04/18 02:39:41;;;;;;;39.85;26.33;;;6.10;91.20;;;;;;5093494;28;20043;-70
2021/04/18 02:42:07;;;;;;;42.80;29.65;;;6.00;91.20;;;;;;5091283;28;20022;-70
2021/04/18 02:44:33;;;;;;;45.55;29.90;;;6.00;91.20;;;;;;5091978;28;20515;-70
2021/04/18 02:46:59;;;;;;;50.33;28.35;;;5.90;91.60;;;;;;5092342;28;20020;-71
2021/04/18 02:49:25;;;;;;;41.67;25.60;;;5.90;91.30;;;;;;5091830;28;20508;-71
2021/04/18 02:51:50;;;;;;;43.42;24.30;;;5.80;91.40;;;;;;5091341;28;20024;-70
2021/04/18 02:54:16;;;;;;;49.47;25.55;;;5.90;91.50;;;;;;5092620;28;20436;-70
2021/04/18 02:56:42;;;;;;;49.05;26.88;;;5.80;91.60;;;;;;5091833;28;20026;-70
2021/04/18 02:59:07;;;;;;;38.25;23.27;;;5.90;91.70;;;;;;5092340;28;20098;-70
2021/04/18 03:01:34;;;;;;;40.10;24.55;;;5.90;91.80;;;;;;5093061;28;20057;-70
2021/04/18 03:03:59;;;;;;;41.65;24.75;;;5.90;91.90;;;;;;5092441;28;20020;-71
2021/04/18 03:06:25;;;;;;;42.42;24.40;;;5.90;92.10;;;;;;5093099;28;20085;-71
2021/04/18 03:08:51;;;;;;;41.88;23.15;;;5.90;92.30;;;;;;5091479;28;20128;-70
2021/04/18 03:11:17;;;;;;;47.80;25.15;;;6.00;92.40;;;;;;5084627;28;20048;-70
2021/04/18 03:13:44;;;;;;;49.10;23.70;;;6.10;92.50;;;;;;5091562;28;20058;-71
2021/04/18 03:16:09;;;;;;;43.60;24.80;;;6.10;92.60;;;;;;5092530;28;20024;-70
2021/04/18 03:18:35;;;;;;;39.58;23.58;;;6.20;92.60;;;;;;5092761;28;20030;-71
2021/04/18 03:21:01;;;;;;;37.28;21.25;;;6.30;92.40;;;;;;5091926;28;20031;-71
2021/04/18 03:23:26;;;;;;;36.65;23.38;;;6.30;92.30;;;;;;5091629;28;20028;-71
2021/04/18 03:25:52;;;;;;;37.42;24.70;;;6.30;92.10;;;;;;5083096;28;20024;-71
2021/04/18 03:28:18;;;;;;;38.17;24.10;;;6.30;92.10;;;;;;5088293;28;20024;-71
2021/04/18 03:30:44;;;;;;;33.45;21.75;;;6.30;91.90;;;;;;5091600;28;20067;-72
2021/04/18 03:33:10;;;;;;;40.95;24.55;;;6.20;91.90;;;;;;5083288;28;20414;-72
2021/04/18 03:35:35;;;;;;;51.85;32.47;;;6.20;91.80;;;;;;5091781;28;20083;-72
2021/04/18 03:38:03;;;;;;;56.70;42.10;;;6.20;92.00;;;;;;5090459;28;20039;-71
2021/04/18 03:40:29;;;;;;;112.07;99.85;;;6.20;92.00;;;;;;5081293;28;20047;-71
2021/04/18 03:42:55;;;;;;;97.70;87.22;;;6.30;92.00;;;;;;5092067;28;20198;-72
2021/04/18 03:45:21;;;;;;;87.43;75.18;;;6.30;92.10;;;;;;5090398;28;20292;-70
2021/04/18 03:47:47;;;;;;;78.38;65.03;;;6.40;92.10;;;;;;5092117;28;20051;-70
2021/04/18 03:50:13;;;;;;;79.28;61.63;;;6.50;92.10;;;;;;5078157;28;20016;-71
2021/04/18 03:52:39;;;;;;;62.22;43.75;;;6.50;91.90;;;;;;5074958;28;20166;-70
2021/04/18 03:55:06;;;;;;;55.55;31.90;;;6.60;92.00;;;;;;5086400;28;20032;-70
2021/04/18 03:57:31;;;;;;;45.72;27.83;;;6.60;91.90;;;;;;5091779;28;20059;-71
2021/04/18 03:59:57;;;;;;;44.63;26.05;;;6.70;91.80;;;;;;5095836;28;20098;-71
2021/04/18 04:02:23;;;;;;;48.85;26.67;;;6.80;91.70;;;;;;5094968;28;20070;-71
2021/04/18 04:04:48;;;;;;;48.92;26.60;;;6.80;91.70;;;;;;5096589;28;20036;-71
2021/04/18 04:07:14;;;;;;;50.70;25.90;;;6.90;91.60;;;;;;5094247;28;20024;-70
2021/04/18 04:09:40;;;;;;;47.78;26.48;;;6.90;91.20;;;;;;5095341;28;20035;-70
2021/04/18 04:12:06;;;;;;;52.40;29.92;;;6.90;91.00;;;;;;5097378;28;20020;-70
2021/04/18 04:14:31;;;;;;;48.97;28.52;;;6.80;91.00;;;;;;5095941;28;20085;-72
2021/04/18 04:16:57;;;;;;;48.25;28.48;;;6.90;91.30;;;;;;5091981;28;20403;-71
2021/04/18 04:19:23;;;;;;;41.90;24.98;;;6.90;91.50;;;;;;5096677;28;20020;-71
2021/04/18 04:21:49;;;;;;;38.33;23.88;;;7.00;91.90;;;;;;5096917;28;20047;-71
2021/04/18 04:24:14;;;;;;;37.17;23.02;;;7.10;92.00;;;;;;5093897;28;20058;-72
2021/04/18 04:26:40;;;;;;;32.15;21.73;;;7.30;92.20;;;;;;5081419;28;20450;-71
2021/04/18 04:29:06;;;;;;;36.20;21.27;;;7.60;92.40;;;;;;5085301;28;20029;-70
2021/04/18 04:31:32;;;;;;;33.92;20.83;;;7.80;92.30;;;;;;5087566;28;20032;-71
2021/04/18 04:33:57;;;;;;;32.00;21.77;;;8.00;91.90;;;;;;5094185;28;20063;-72
2021/04/18 04:36:23;;;;;;;34.50;20.70;;;8.20;91.80;;;;;;5086238;28;20481;-71
2021/04/18 04:38:49;;;;;;;33.95;21.05;;;8.60;92.60;;;;;;5094625;28;20044;-71
2021/04/18 04:41:15;;;;;;;34.22;22.00;;;9.10;93.30;;;;;;5093592;28;20036;-72
2021/04/18 04:43:41;;;;;;;27.40;19.67;;;9.80;93.70;;;;;;5092998;28;20031;-72
2021/04/18 04:46:06;;;;;;;27.73;20.13;;;10.70;93.90;;;;;;5094918;28;20020;-73
2021/04/18 04:48:32;;;;;;;23.90;17.85;;;11.60;92.90;;;;;;5093795;28;20027;-72
2021/04/18 04:50:58;;;;;;;24.48;17.98;;;12.50;90.40;;;;;;5094799;28;20012;-73
2021/04/18 04:53:23;;;;;;;28.92;19.80;;;13.00;87.40;;;;;;5094870;28;20028;-72
2021/04/18 04:55:49;;;;;;;23.35;17.80;;;13.50;83.90;;;;;;5094363;28;20374;-72
2021/04/18 04:58:15;;;;;;;26.17;19.58;;;14.00;81.80;;;;;;5093401;28;20024;-72
2021/04/18 05:00:42;;;;;;;28.40;23.58;;;14.50;77.80;;;;;;5094124;28;20020;-73
2021/04/18 05:03:08;;;;;;;27.42;23.85;;;15.00;76.70;;;;;;5093895;28;20033;-72
2021/04/18 05:05:34;;;;;;;27.13;24.25;;;15.30;73.20;;;;;;5093662;28;20027;-73
2021/04/18 05:08:00;;;;;;;27.30;24.35;;;15.50;72.10;;;;;;5094748;28;20118;-72
2021/04/18 05:10:26;;;;;;;26.17;23.25;;;15.70;70.30;;;;;;5093035;28;20085;-72
2021/04/18 05:12:52;;;;;;;28.65;25.65;;;15.90;68.40;;;;;;5087626;28;20108;-72
2021/04/18 05:15:21;;;;;;;27.48;24.58;;;15.80;66.50;;;;;;5083276;28;20028;-73
2021/04/18 05:17:47;;;;;;;29.02;24.38;;;15.90;66.30;;;;;;5080191;28;20012;-72
2021/04/18 05:20:14;;;;;;;23.23;20.42;;;16.10;66.30;;;;;;5094016;28;20031;-72
2021/04/18 05:22:39;;;;;;;25.38;19.58;;;16.30;65.60;;;;;;5092298;28;20048;-73
2021/04/18 05:25:05;;;;;;;22.90;19.85;;;16.40;64.20;;;;;;5092742;28;20059;-73
2021/04/18 05:27:31;;;;;;;27.85;21.63;;;16.40;63.10;;;;;;5092700;28;20035;-73
2021/04/18 05:29:57;;;;;;;25.40;19.83;;;16.50;63.80;;;;;;5093305;28;20028;-73
2021/04/18 05:32:22;;;;;;;25.50;20.23;;;16.80;63.50;;;;;;5090993;28;20020;-73
2021/04/18 05:34:48;;;;;;;23.95;19.92;;;17.10;62.80;;;;;;5087257;28;20039;-73
2021/04/18 05:37:14;;;;;;;24.25;19.05;;;17.40;63.10;;;;;;5093031;28;20567;-73
2021/04/18 05:39:40;;;;;;;21.70;18.10;;;18.00;63.50;;;;;;5090227;28;20043;-75
2021/04/18 05:42:06;;;;;;;20.05;16.95;;;18.60;61.20;;;;;;5086055;28;20067;-74
2021/04/18 05:44:32;;;;;;;19.42;15.73;;;19.00;59.80;;;;;;5091831;28;20020;-74
2021/04/18 05:46:57;;;;;;;17.20;15.27;;;19.50;57.90;;;;;;5090904;28;20049;-75
2021/04/18 05:49:23;;;;;;;20.38;15.98;;;19.90;57.50;;;;;;5089759;28;20024;-74
2021/04/18 05:51:49;;;;;;;20.20;16.33;;;20.20;56.50;;;;;;5091533;28;20031;-74
2021/04/18 05:54:14;;;;;;;22.02;16.05;;;20.30;55.80;;;;;;5090172;28;20537;-75
2021/04/18 05:56:40;;;;;;;20.13;15.18;;;20.70;54.80;;;;;;5090590;28;20031;-76
2021/04/18 05:59:06;;;;;;;18.23;15.00;;;20.90;53.10;;;;;;5087608;28;20024;-74
2021/04/18 06:01:33;;;;;;;19.92;15.23;;;21.00;53.50;;;;;;5093013;28;20127;-75
2021/04/18 06:03:58;;;;;;;22.30;16.63;;;21.30;53.10;;;;;;5091228;28;20062;-75
2021/04/18 06:06:27;;;;;;;23.02;18.90;;;21.60;52.40;;;;;;5092509;28;20460;-75
2021/04/18 06:08:56;;;;;;;20.60;17.15;;;21.90;52.30;;;;;;5094128;28;20042;-76
2021/04/18 06:11:22;;;;;;;22.08;18.55;;;22.40;50.80;;;;;;5087206;28;20131;-74
2021/04/18 06:13:49;;;;;;;24.70;18.35;;;22.60;49.70;;;;;;5086942;28;20027;-75
2021/04/18 06:16:16;;;;;;;21.25;17.23;;;22.70;49.20;;;;;;5086649;28;20067;-74
2021/04/18 06:18:41;;;;;;;21.02;16.45;;;22.90;48.80;;;;;;5088552;28;20018;-75
2021/04/18 06:21:07;;;;;;;20.15;15.98;;;22.90;47.70;;;;;;5087338;28;20020;-75
2021/04/18 06:23:33;;;;;;;18.27;15.63;;;22.80;47.90;;;;;;5090800;28;20023;-75
2021/04/18 06:25:59;;;;;;;20.80;17.48;;;22.80;47.60;;;;;;5092222;28;20032;-73
2021/04/18 06:28:25;;;;;;;19.15;16.77;;;22.80;47.60;;;;;;5092637;28;20542;-76
2021/04/18 06:30:51;;;;;;;22.83;16.98;;;22.80;47.40;;;;;;5094623;28;20031;-74
2021/04/18 06:33:17;;;;;;;18.88;16.30;;;22.80;47.50;;;;;;5092413;28;20023;-70
2021/04/18 06:35:43;;;;;;;20.45;16.58;;;22.80;47.60;;;;;;5089883;28;20075;-69
2021/04/18 06:38:10;;;;;;;17.92;14.48;;;22.90;46.50;;;;;;5090578;28;20051;-74
2021/04/18 06:40:36;;;;;;;16.30;13.60;;;22.80;45.50;;;;;;5085155;28;20024;-73
2021/04/18 06:43:06;;;;;;;17.35;13.57;;;22.70;45.50;;;;;;5080913;28;20021;-74
2021/04/18 06:45:31;;;;;;;15.10;12.48;;;22.90;46.30;;;;;;5089890;28;20020;-73
2021/04/18 06:47:59;;;;;;;16.08;12.07;;;23.30;45.80;;;;;;5088794;28;20508;-72
2021/04/18 06:50:25;;;;;;;28.35;19.77;;;23.60;44.80;;;;;;5088407;28;20378;-72
2021/04/18 06:52:51;;;;;;;31.23;18.25;;;23.30;43.00;;;;;;5090866;28;20047;-72
2021/04/18 06:55:17;;;;;;;21.08;13.82;;;22.70;43.40;;;;;;5090837;28;20067;-73
2021/04/18 06:57:43;;;;;;;20.20;14.35;;;22.40;44.00;;;;;;5092897;28;20492;-72
2021/04/18 07:00:10;;;;;;;16.90;13.73;;;22.10;45.90;;;;;;5088098;28;20066;-73
2021/04/18 07:02:37;;;;;;;18.08;13.48;;;22.20;46.60;;;;;;5079326;28;20032;-73
2021/04/18 07:05:16;;;;;;;19.23;13.27;;;22.60;46.10;;;;;;5087321;28;20024;-73
2021/04/18 07:07:47;;;;;;;16.20;12.68;;;22.80;45.30;;;;;;5088355;28;20036;-72
2021/04/18 07:10:26;;;;;;;14.55;11.10;;;22.90;45.10;;;;;;5090180;28;20354;-72
2021/04/18 07:12:53;;;;;;;15.82;12.35;;;23.20;43.80;;;;;;5086286;28;20458;-72
2021/04/18 07:15:40;;;;;;;14.75;10.93;;;23.10;43.80;;;;;;5085738;28;20108;-72
2021/04/18 07:18:07;;;;;;;28.17;17.65;;;22.90;43.70;;;;;;5090113;28;20020;-72
2021/04/18 07:20:33;;;;;;;45.83;22.85;;;22.30;43.00;;;;;;5090762;28;20016;-71
2021/04/18 07:23:25;;;;;;;31.75;18.08;;;21.50;43.80;;;;;;5090810;28;20020;-71
2021/04/18 07:25:51;;;;;;;26.73;17.15;;;21.40;45.70;;;;;;5075959;28;20427;-71
2021/04/18 07:28:27;;;;;;;37.35;19.58;;;21.90;46.00;;;;;;5085894;28;20173;-72
2021/04/18 07:31:02;;;;;;;15.98;10.93;;;22.40;46.00;;;;;;5086743;28;20481;-72
2021/04/18 07:33:28;;;;;;;21.70;12.00;;;22.80;46.20;;;;;;5095087;28;20073;-72
2021/04/18 07:35:53;;;;;;;15.77;11.18;;;22.90;44.60;;;;;;5096412;28;20040;-72
2021/04/18 07:38:28;;;;;;;17.67;12.02;;;23.00;44.40;;;;;;5093455;28;20366;-72
2021/04/18 07:41:14;;;;;;;15.55;11.82;;;23.30;44.00;;;;;;5096237;28;20020;-73
2021/04/18 07:43:43;;;;;;;16.35;12.05;;;23.50;43.80;;;;;;5075722;28;20086;-69
2021/04/18 07:46:09;;;;;;;16.63;12.95;;;24.10;43.20;;;;;;5088767;28;20016;-71
2021/04/18 07:48:36;;;;;;;15.93;13.23;;;24.30;42.30;;;;;;5084235;28;20050;-69
2021/04/18 07:51:02;;;;;;;15.48;11.35;;;24.10;41.60;;;;;;5077780;28;20019;-70
2021/04/18 07:53:27;;;;;;;14.30;10.63;;;23.70;41.80;;;;;;5083117;28;20021;-71
2021/04/18 07:55:53;;;;;;;13.82;9.45;;;23.90;41.90;;;;;;5089020;28;20041;-72
2021/04/18 07:58:19;;;;;;;17.17;10.63;;;23.80;40.80;;;;;;5090528;28;20020;-71
2021/04/18 08:00:45;;;;;;;25.23;12.35;;;23.30;40.00;;;;;;5088596;28;20027;-72
2021/04/18 08:03:14;;;;;;;39.25;15.00;;;22.60;41.20;;;;;;5094406;28;20548;-72
2021/04/18 08:05:40;;;;;;;16.88;10.77;;;22.80;42.10;;;;;;5095681;28;20020;-72
2021/04/18 08:08:13;;;;;;;22.70;11.70;;;23.00;42.30;;;;;;5095375;28;20439;-72
2021/04/18 08:10:47;;;;;;;17.33;12.88;;;23.20;41.10;;;;;;5094205;28;20058;-72
2021/04/18 08:13:25;;;;;;;16.30;12.00;;;22.60;41.30;;;;;;5091316;28;20020;-71
2021/04/18 08:15:55;;;;;;;18.35;11.93;;;21.60;42.00;;;;;;5092278;28;20043;-72
2021/04/18 08:18:31;;;;;;;17.63;12.68;;;21.10;44.00;;;;;;5089434;28;20059;-72
2021/04/18 08:20:57;;;;;;;20.13;13.18;;;21.30;45.30;;;;;;5101340;28;20024;-73
2021/04/18 08:23:38;;;;;;;38.50;17.55;;;21.80;44.40;;;;;;5096034;28;20047;-73
2021/04/18 08:26:11;;;;;;;17.75;11.60;;;21.80;44.30;;;;;;5087472;28;20036;-72
2021/04/18 08:28:54;;;;;;;51.58;18.15;;;21.80;44.20;;;;;;5088002;28;20024;-72
2021/04/18 08:31:24;;;;;;;37.05;16.83;;;22.30;43.20;;;;;;5089636;28;20039;-73
2021/04/18 08:33:53;;;;;;;26.10;12.65;;;22.80;42.50;;;;;;5091019;28;20032;-73
2021/04/18 08:36:45;;;;;;;25.95;11.43;;;22.40;41.10;;;;;;5090669;28;20036;-74
2021/04/18 08:39:14;;;;;;;69.30;17.48;;;21.50;40.80;;;;;;5072967;28;20051;-73
2021/04/18 08:41:44;;;;;;;30.75;12.80;;;20.20;41.90;;;;;;5078213;28;20028;-72
2021/04/18 08:44:25;;;;;;;25.92;11.60;;;19.30;43.60;;;;;;5081953;28;20023;-73
2021/04/18 08:46:52;;;;;;;25.48;11.93;;;18.60;45.00;;;;;;5080615;28;20086;-72
2021/04/18 08:49:30;;;;;;;17.98;10.35;;;18.00;46.00;;;;;;5084988;28;21229;-71
2021/04/18 08:51:57;;;;;;;18.90;11.13;;;17.50;47.20;;;;;;5083725;28;20024;-73
2021/04/18 08:54:34;;;;;;;16.52;11.00;;;17.10;48.50;;;;;;5078182;28;20053;-72
2021/04/18 08:57:12;;;;;;;19.73;11.20;;;17.00;49.60;;;;;;5085417;28;20028;-74
2021/04/18 08:59:40;;;;;;;16.58;11.50;;;17.30;51.20;;;;;;5089486;28;20031;-73
2021/04/18 09:02:08;;;;;;;21.17;11.48;;;18.40;51.70;;;;;;5090739;28;20038;-72
2021/04/18 09:04:39;;;;;;;45.85;15.90;;;18.80;49.00;;;;;;5082014;28;20456;-73
2021/04/18 09:07:07;;;;;;;22.80;11.73;;;18.50;47.80;;;;;;5082316;28;20043;-72
2021/04/18 09:09:34;;;;;;;49.67;20.17;;;18.40;48.60;;;;;;5091424;28;20115;-71
2021/04/18 09:12:00;;;;;;;24.52;14.10;;;18.20;47.80;;;;;;5084990;28;20055;-71
2021/04/18 09:14:37;;;;;;;17.13;11.02;;;18.00;48.70;;;;;;5084247;28;20032;-71
2021/04/18 09:17:17;;;;;;;19.92;10.80;;;18.00;49.20;;;;;;5085344;28;20451;-75
2021/04/18 09:20:00;;;;;;;14.98;10.57;;;18.30;49.70;;;;;;5083530;28;20024;-74
2021/04/18 09:22:31;;;;;;;15.65;10.18;;;18.50;49.00;;;;;;5091620;28;20497;-73
2021/04/18 09:24:58;;;;;;;13.27;8.82;;;18.90;49.40;;;;;;5079325;28;20442;-74
2021/04/18 09:27:33;;;;;;;12.30;9.20;;;19.70;49.10;;;;;;5088137;28;20059;-74
2021/04/18 09:30:02;;;;;;;16.67;10.77;;;20.50;48.30;;;;;;5078516;28;20028;-74
2021/04/18 09:33:09;;;;;;;17.33;10.65;;;21.20;46.40;;;;;;5090321;28;20012;-75
2021/04/18 09:35:35;;;;;;;35.78;13.50;;;22.00;45.70;;;;;;5078177;28;20028;-75
2021/04/18 09:38:03;;;;;;;29.95;15.07;;;22.50;44.40;;;;;;5093064;28;20469;-75
2021/04/18 09:40:32;;;;;;;15.13;10.40;;;22.80;42.40;;;;;;5094011;28;20031;-75
2021/04/18 09:42:58;;;;;;;42.00;16.85;;;22.60;40.80;;;;;;5089259;28;20025;-75
2021/04/18 09:45:25;;;;;;;58.38;24.45;;;21.80;41.20;;;;;;5088880;28;20024;-75
2021/04/18 09:47:54;;;;;;;20.27;11.02;;;21.00;42.30;;;;;;5089837;28;20028;-74
2021/04/18 09:50:34;;;;;;;18.77;10.50;;;20.30;42.80;;;;;;5087828;28;20024;-69
2021/04/18 09:53:25;;;;;;;12.30;8.52;;;20.40;44.60;;;;;;5092395;28;20332;-72
2021/04/18 09:55:59;;;;;;;10.43;8.52;;;20.80;42.60;;;;;;5080256;28;20035;-74
2021/04/18 09:58:30;;;;;;;10.67;7.73;;;20.80;42.60;;;;;;5092739;28;20023;-71
2021/04/18 10:00:57;;;;;;;12.15;8.13;;;21.00;43.00;;;;;;5078078;28;20366;-81
2021/04/18 10:03:37;;;;;;;12.00;8.15;;;20.90;42.70;;;;;;5082609;28;20027;-78
2021/04/18 10:06:06;;;;;;;13.00;9.25;;;20.40;43.30;;;;;;5087996;28;20099;-73
2021/04/18 10:08:34;;;;;;;11.20;8.00;;;20.00;44.20;;;;;;5072344;28;20044;-74
2021/04/18 10:11:05;;;;;;;12.18;7.32;;;19.80;45.00;;;;;;5088751;28;20024;-74
2021/04/18 10:13:39;;;;;;;9.95;7.45;;;19.70;44.80;;;;;;5092621;28;20031;-74
2021/04/18 10:16:07;;;;;;;8.32;6.28;;;19.60;44.60;;;;;;5092211;28;20508;-73
2021/04/18 10:18:37;;;;;;;9.55;6.68;;;19.60;44.60;;;;;;5093275;28;20015;-82
2021/04/18 10:21:22;;;;;;;9.35;6.30;;;19.70;44.20;;;;;;5098661;28;20012;-83
2021/04/18 10:23:50;;;;;;;9.43;6.85;;;20.20;44.70;;;;;;5085410;28;20047;-80
2021/04/18 10:26:18;;;;;;;10.45;6.85;;;20.80;43.90;;;;;;5099824;28;20095;-79
2021/04/18 10:28:53;;;;;;;8.55;6.15;;;21.30;43.20;;;;;;5114599;28;20036;-79
2021/04/18 10:31:21;;;;;;;10.23;7.00;;;21.20;42.40;;;;;;5116826;28;20041;-80
2021/04/18 10:33:49;;;;;;;9.73;6.82;;;21.00;42.10;;;;;;5103021;28;20004;-81
2021/04/18 10:36:17;;;;;;;10.35;7.60;;;20.50;42.20;;;;;;5105384;28;20046;-78
2021/04/18 10:38:43;;;;;;;11.30;8.35;;;20.00;42.60;;;;;;5109423;28;20531;-80
2021/04/18 10:41:09;;;;;;;13.30;8.35;;;19.40;43.60;;;;;;5105286;28;20035;-78
2021/04/18 10:43:36;;;;;;;13.35;8.40;;;19.10;44.70;;;;;;5105848;28;20016;-80
2021/04/18 10:46:04;;;;;;;13.48;9.05;;;18.90;45.40;;;;;;5105559;28;20050;-78
2021/04/18 10:48:30;;;;;;;11.10;7.75;;;18.60;45.40;;;;;;5088098;28;20013;-76
2021/04/18 10:50:56;;;;;;;11.13;7.95;;;18.50;45.30;;;;;;5089227;28;20086;-79
2021/04/18 10:53:22;;;;;;;10.98;8.18;;;18.20;45.20;;;;;;5082002;28;20016;-80
2021/04/18 10:55:48;;;;;;;14.68;9.82;;;17.90;45.90;;;;;;5085557;28;20023;-75
2021/04/18 10:58:16;;;;;;;11.68;8.93;;;17.70;46.60;;;;;;5086906;28;20103;-80
2021/04/18 11:00:43;;;;;;;10.73;7.90;;;17.50;47.20;;;;;;5090733;28;20028;-80
2021/04/18 11:03:09;;;;;;;14.25;8.98;;;17.40;47.70;;;;;;5079673;28;20028;-79
2021/04/18 11:06:01;;;;;;;14.20;9.23;;;17.20;48.10;;;;;;5092502;28;20024;-81
2021/04/18 11:08:30;;;;;;;10.00;7.38;;;17.30;48.90;;;;;;5097282;28;20076;-80
2021/04/18 11:11:11;;;;;;;11.48;8.35;;;17.60;48.50;;;;;;5087504;28;20028;-79
2021/04/18 11:14:14;;;;;;;13.85;8.15;;;17.60;47.90;;;;;;5089882;28;20028;-78
2021/04/18 11:16:40;;;;;;;10.60;7.30;;;17.50;47.80;;;;;;5074852;28;20056;-80
2021/04/18 11:19:09;;;;;;;10.40;7.25;;;17.30;47.70;;;;;;5087197;28;20032;-80
2021/04/18 11:21:41;;;;;;;10.20;7.32;;;17.00;47.90;;;;;;5085303;28;20024;-80
2021/04/18 11:25:00;;;;;;;11.85;7.72;;;16.80;48.50;;;;;;5090768;28;20020;-81
2021/04/18 11:27:27;;;;;;;10.82;6.72;;;16.70;48.90;;;;;;5079753;28;20051;-80
2021/04/18 11:29:56;;;;;;;10.27;6.97;;;16.70;48.90;;;;;;5076695;28;20024;-80
2021/04/18 11:32:27;;;;;;;10.38;6.57;;;16.80;49.10;;;;;;5092549;28;20016;-81
2021/04/18 11:34:57;;;;;;;10.38;7.28;;;16.90;49.30;;;;;;5079574;28;20112;-80
2021/04/18 11:37:27;;;;;;;8.98;6.15;;;17.20;49.00;;;;;;5072339;28;20071;-80
2021/04/18 11:39:54;;;;;;;10.02;5.85;;;17.50;48.60;;;;;;5085469;28;20111;-79
2021/04/18 11:42:26;;;;;;;11.45;6.22;;;17.80;48.10;;;;;;5086048;28;20020;-80
2021/04/18 11:44:52;;;;;;;8.88;6.43;;;18.10;47.70;;;;;;5084934;28;20020;-81
2021/04/18 11:47:19;;;;;;;8.10;5.50;;;18.10;47.40;;;;;;5077199;28;20023;-81
2021/04/18 11:49:47;;;;;;;8.27;5.82;;;18.20;47.00;;;;;;5081191;28;20017;-80
2021/04/18 11:52:19;;;;;;;9.75;6.05;;;18.30;46.60;;;;;;5089250;28;20048;-80
2021/04/18 11:54:44;;;;;;;9.55;6.57;;;18.40;46.30;;;;;;5092665;28;20032;-81
2021/04/18 11:57:10;;;;;;;9.48;6.20;;;18.60;46.70;;;;;;5076577;28;20027;-80
2021/04/18 11:59:37;;;;;;;9.52;6.80;;;18.80;46.40;;;;;;5083532;28;20020;-81
2021/04/18 12:02:04;;;;;;;13.60;6.82;;;18.80;45.70;;;;;;5084776;28;20020;-78
2021/04/18 12:04:30;;;;;;;7.78;5.90;;;18.80;45.50;;;;;;5076856;28;20020;-79
2021/04/18 12:06:56;;;;;;;8.88;6.32;;;18.60;45.20;;;;;;5080846;28;20127;-76
2021/04/18 12:09:21;;;;;;;8.95;6.38;;;18.30;45.00;;;;;;5088844;28;20041;-80
2021/04/18 12:11:47;;;;;;;9.48;6.13;;;17.90;45.70;;;;;;5082012;28;20355;-80
2021/04/18 12:14:16;;;;;;;10.07;6.38;;;17.60;46.30;;;;;;5093004;28;20035;-79
2021/04/18 12:16:42;;;;;;;10.30;6.63;;;17.40;46.90;;;;;;5102711;28;20016;-79
2021/04/18 12:19:17;;;;;;;9.13;6.53;;;17.10;47.20;;;;;;5100302;28;20026;-78
2021/04/18 12:21:48;;;;;;;8.35;6.28;;;16.90;48.10;;;;;;5087056;28;20099;-78
2021/04/18 12:24:17;;;;;;;9.85;5.88;;;16.80;48.10;;;;;;5082883;28;20020;-80
2021/04/18 12:26:43;;;;;;;8.07;5.60;;;16.60;48.30;;;;;;5096774;28;20085;-79
2021/04/18 12:29:09;;;;;;;9.15;5.95;;;16.40;48.50;;;;;;5102213;28;20020;-80
2021/04/18 12:31:39;;;;;;;10.70;6.05;;;16.30;48.80;;;;;;5107327;28;20020;-79
2021/04/18 12:34:07;;;;;;;11.10;7.07;;;16.20;49.20;;;;;;5102820;28;20040;-80
2021/04/18 12:36:39;;;;;;;10.60;7.07;;;16.10;49.40;;;;;;5096842;28;20035;-80
2021/04/18 12:39:07;;;;;;;10.57;6.55;;;16.00;49.90;;;;;;5097842;28;20080;-78